This is the latest recevied weather packets stored in our database for station/object IZ3ZOD-13. If no packets are shown the sender has not sent any weather packets the latest 10 day(s).
| Time | Temp. | Humidity | Pressure | Rain* | Wind** | Luminosity | Snow |
|---|---|---|---|---|---|---|---|
| 1777935253 | 13.89° C | 77% | 1015.6 hPa | 0 mm | - | - | - |
| 1777930083 | 16.67° C | 68% | 1015.8 hPa | 0 mm | - | - | - |
| 1777929843 | 16.67° C | 67% | 1015.8 hPa | 0 mm | - | - | - |
| 1777928883 | 16.67° C | 68% | 1015.9 hPa | 0 mm | - | - | - |
| 1777928643 | 16.67° C | 69% | 1016 hPa | 0 mm | - | - | - |
| 1777925763 | 16.67° C | 66% | 1015.9 hPa | 0 mm | - | - | - |
| 1777923844 | 17.78° C | 63% | 1015.6 hPa | 0 mm | - | - | - |
| 1777922403 | 18.89° C | 59% | 1015.8 hPa | 0 mm | - | - | - |
| 1777922163 | 18.89° C | 59% | 1015.6 hPa | 0 mm | - | - | - |
| 1777921923 | 18.89° C | 59% | 1015.7 hPa | 0 mm | - | - | - |
| 1777921203 | 18.89° C | 58% | 1015.6 hPa | 0 mm | - | - | - |
| 1777920963 | 19.44° C | 57% | 1015.6 hPa | 0 mm | - | - | - |
| 1777915923 | 22.78° C | 47% | 1015.2 hPa | 0 mm | - | - | - |
| 1777913043 | 25° C | 34% | 1015 hPa | 0 mm | - | - | - |
| 1777911603 | 25° C | 36% | 1015.1 hPa | 0 mm | - | - | - |
| 1777910403 | 25° C | 35% | 1015.2 hPa | 0 mm | - | - | - |
| 1777909924 | 25.56° C | 34% | 1015.1 hPa | 0 mm | - | - | - |
| 1777908004 | 26.11° C | 39% | 1015.2 hPa | 0 mm | - | - | - |
| 1777904164 | 25° C | 44% | 1015.6 hPa | 0 mm | - | - | - |
| 1777902243 | 26.67° C | 44% | 1015.9 hPa | 0 mm | - | - | - |
| 1777901763 | 26.11° C | 45% | 1015.9 hPa | 0 mm | - | - | - |
| 1777901523 | 26.67° C | 45% | 1015.9 hPa | 0 mm | - | - | - |
| 1777901043 | 26.67° C | 38% | 1016.1 hPa | 0 mm | - | - | - |
| 1777898884 | 26.67° C | 38% | 1016.3 hPa | 0 mm | - | - | - |
| 1777897443 | 26.11° C | 41% | 1016.6 hPa | 0 mm | - | - | - |
* Rain latest hour (hover to see other rain measurements)
** Current wind speed in m/s (hover to see current wind gust speed)